createdAt,value
2018-03-21T00:02:02.062Z,1024.5
2018-03-21T00:06:55.567Z,1024.5
2018-03-21T00:11:55.610Z,1024.5
2018-03-21T00:16:55.683Z,1024.5
2018-03-21T00:21:55.656Z,1024.5
2018-03-21T00:26:55.654Z,1024.5
2018-03-21T00:31:55.638Z,1024.6
2018-03-21T00:36:58.168Z,1024.7
2018-03-21T00:41:55.634Z,1024.6
2018-03-21T00:46:55.642Z,1024.7
2018-03-21T00:51:55.708Z,1024.6
2018-03-21T00:56:55.654Z,1024.6
2018-03-21T01:01:55.648Z,1024.6
2018-03-21T01:06:55.675Z,1024.6
2018-03-21T01:11:55.659Z,1024.6
2018-03-21T01:16:55.668Z,1024.6
2018-03-21T01:21:55.663Z,1024.6
2018-03-21T01:26:55.667Z,1024.6
2018-03-21T01:31:55.702Z,1024.6
2018-03-21T01:36:55.695Z,1024.5
2018-03-21T01:41:55.633Z,1024.5
2018-03-21T01:46:55.629Z,1024.5
2018-03-21T01:51:55.624Z,1024.5
2018-03-21T01:56:55.628Z,1024.4
2018-03-21T02:01:55.595Z,1024.4
2018-03-21T02:06:55.642Z,1024.4
2018-03-21T02:11:55.634Z,1024.4
2018-03-21T02:16:55.662Z,1024.4
2018-03-21T02:21:55.585Z,1024.5
2018-03-21T02:26:55.653Z,1024.5
2018-03-21T02:31:55.651Z,1024.5
2018-03-21T02:36:55.636Z,1024.5
2018-03-21T02:41:55.671Z,1024.6
2018-03-21T02:46:55.679Z,1024.5
2018-03-21T02:51:55.642Z,1024.6
2018-03-21T02:56:55.662Z,1024.6
2018-03-21T03:01:55.678Z,1024.6
2018-03-21T03:06:58.321Z,1024.6
2018-03-21T03:11:55.665Z,1024.7
2018-03-21T03:17:02.079Z,1024.6
2018-03-21T03:22:12.671Z,1024.6
2018-03-21T03:27:01.820Z,1024.6
2018-03-21T03:32:01.837Z,1024.7
2018-03-21T03:37:01.843Z,1024.7
2018-03-21T03:42:01.828Z,1024.6
2018-03-21T03:47:01.861Z,1024.6
2018-03-21T03:52:01.824Z,1024.7
2018-03-21T03:57:01.847Z,1024.8
2018-03-21T04:02:01.866Z,1024.8
2018-03-21T04:07:01.840Z,1024.9
2018-03-21T04:12:01.834Z,1024.9
2018-03-21T04:17:01.844Z,1025
2018-03-21T04:22:01.846Z,1025
2018-03-21T04:27:01.915Z,1025.1
2018-03-21T04:32:01.865Z,1025
2018-03-21T04:37:01.844Z,1025.1
2018-03-21T04:42:01.879Z,1025.2
2018-03-21T04:47:01.868Z,1025.2
2018-03-21T04:52:01.867Z,1025.3
2018-03-21T04:57:01.876Z,1025.4
2018-03-21T05:02:01.928Z,1025.4
2018-03-21T05:07:01.904Z,1025.6
2018-03-21T05:12:01.910Z,1025.5
2018-03-21T05:17:01.996Z,1025.6
2018-03-21T05:22:01.913Z,1025.6
2018-03-21T05:27:01.938Z,1025.7
2018-03-21T05:32:01.938Z,1025.7
2018-03-21T05:37:02.101Z,1025.9
2018-03-21T05:42:02.164Z,1025.8
2018-03-21T05:47:01.979Z,1025.8
2018-03-21T05:52:12.294Z,1026
2018-03-21T05:57:22.298Z,1025.9
2018-03-21T06:02:12.012Z,1026
2018-03-21T06:07:12.247Z,1026
2018-03-21T06:12:12.159Z,1026.2
2018-03-21T06:17:12.243Z,1026.2
2018-03-21T06:22:12.249Z,1026.3
2018-03-21T06:27:12.020Z,1026.4
2018-03-21T06:32:12.230Z,1026.5
2018-03-21T06:37:12.241Z,1026.5
2018-03-21T06:42:12.037Z,1026.4
2018-03-21T06:47:12.191Z,1026.5
2018-03-21T06:52:12.278Z,1026.5
2018-03-21T06:57:12.158Z,1026.6
2018-03-21T07:02:12.196Z,1026.5
2018-03-21T07:07:12.047Z,1026.5
2018-03-21T07:12:12.170Z,1026.4
2018-03-21T07:17:12.060Z,1026.5
2018-03-21T07:22:12.046Z,1026.3
2018-03-21T07:27:12.297Z,1026.6
2018-03-21T07:32:12.072Z,1026.6
2018-03-21T07:37:12.020Z,1026.7
2018-03-21T07:42:12.191Z,1026.7
2018-03-21T07:47:12.311Z,1026.8
2018-03-21T07:52:12.381Z,1026.8
2018-03-21T07:57:12.586Z,1026.9
2018-03-21T08:02:12.727Z,1027.1
2018-03-21T08:07:12.786Z,1027.2
2018-03-21T08:12:13.229Z,1027.3
2018-03-21T08:17:13.146Z,1027.3
2018-03-21T08:22:13.195Z,1027.4
2018-03-21T08:27:24.960Z,1027.6
2018-03-21T08:32:35.097Z,1027.7
2018-03-21T08:37:24.820Z,1027.7
2018-03-21T08:42:25.137Z,1027.7
2018-03-21T08:47:24.681Z,1027.7
2018-03-21T08:52:24.836Z,1027.7
2018-03-21T08:57:24.686Z,1027.7
2018-03-21T09:02:24.785Z,1027.7
2018-03-21T09:07:25.036Z,1027.6
2018-03-21T09:12:24.691Z,1027.8
2018-03-21T09:17:24.906Z,1027.8
2018-03-21T09:22:24.684Z,1027.7
2018-03-21T09:27:24.894Z,1027.6
2018-03-21T09:32:24.898Z,1027.7
2018-03-21T09:37:25.070Z,1027.7
2018-03-21T09:42:24.856Z,1027.8
2018-03-21T09:47:25.145Z,1027.8
2018-03-21T09:52:25.349Z,1027.7
2018-03-21T09:57:25.182Z,1027.8
2018-03-21T10:02:25.591Z,1027.8
2018-03-21T10:07:26.249Z,1027.6
2018-03-21T10:12:25.263Z,1027.7
2018-03-21T10:17:25.289Z,1027.8
2018-03-21T10:22:25.394Z,1027.5
2018-03-21T10:27:25.263Z,1027.4
2018-03-21T10:32:25.270Z,1027.3
2018-03-21T10:37:25.180Z,1027.2
2018-03-21T10:42:25.410Z,1027.2
2018-03-21T10:47:25.317Z,1027.2
2018-03-21T10:52:25.344Z,1027.1
2018-03-21T10:57:27.097Z,1027
2018-03-21T11:02:37.046Z,1027
2018-03-21T11:07:26.805Z,1026.8
2018-03-21T11:12:26.670Z,1027
2018-03-21T11:17:26.831Z,1026.9
2018-03-21T11:22:26.894Z,1026.8
2018-03-21T11:27:26.825Z,1026.8
2018-03-21T11:32:26.878Z,1026.6
2018-03-21T11:37:26.740Z,1026.6
2018-03-21T11:42:27.305Z,1026.8
2018-03-21T11:47:27.074Z,1027
2018-03-21T11:52:27.240Z,1026.8
2018-03-21T11:57:27.629Z,1027
2018-03-21T12:02:27.846Z,1026.9
2018-03-21T12:07:27.992Z,1026.8
2018-03-21T12:12:28.245Z,1026.7
2018-03-21T12:17:28.494Z,1026.6
2018-03-21T12:22:28.601Z,1026.6
2018-03-21T12:27:28.439Z,1026.8
2018-03-21T12:32:28.470Z,1027
2018-03-21T12:37:28.465Z,1027
2018-03-21T12:42:28.579Z,1027.3
2018-03-21T12:47:28.702Z,1027.4
2018-03-21T12:52:28.453Z,1027.6
2018-03-21T12:57:28.645Z,1027.6
2018-03-21T13:02:28.715Z,1027.7
2018-03-21T13:07:28.717Z,1027.7
2018-03-21T13:12:28.440Z,1027.7
2018-03-21T13:17:28.714Z,1027.8
2018-03-21T13:22:28.599Z,1027.6
2018-03-21T13:27:30.700Z,1027.6
2018-03-21T13:32:40.911Z,1027.6
2018-03-21T13:37:30.332Z,1027.5
2018-03-21T13:42:30.417Z,1027.5
2018-03-21T13:47:30.698Z,1027.3
2018-03-21T13:52:30.716Z,1027.3
2018-03-21T13:57:30.584Z,1027.3
2018-03-21T14:02:33.250Z,1027.3
2018-03-21T14:07:30.410Z,1027.3
2018-03-21T14:12:30.605Z,1027.4
2018-03-21T14:17:30.537Z,1027.4
2018-03-21T14:22:30.542Z,1027.4
2018-03-21T14:27:30.722Z,1027.5
2018-03-21T14:32:30.693Z,1027.4
2018-03-21T14:37:30.800Z,1027.5
2018-03-21T14:42:30.711Z,1027.6
2018-03-21T14:47:30.808Z,1027.5
2018-03-21T14:52:30.855Z,1027.5
2018-03-21T14:57:30.939Z,1027.5
2018-03-21T15:02:30.904Z,1027.4
2018-03-21T15:07:30.722Z,1027.6
2018-03-21T15:12:30.912Z,1027.4
2018-03-21T15:17:30.956Z,1027.5
2018-03-21T15:22:30.872Z,1027.5
2018-03-21T15:27:30.894Z,1027.5
2018-03-21T15:32:30.947Z,1027.5
2018-03-21T15:37:31.015Z,1027.5
2018-03-21T15:42:30.898Z,1027.6
2018-03-21T15:47:30.736Z,1027.8
2018-03-21T15:52:30.970Z,1027.8
2018-03-21T15:57:33.817Z,1027.7
2018-03-21T16:02:43.991Z,1027.7
2018-03-21T16:07:33.454Z,1027.8
2018-03-21T16:12:33.682Z,1027.8
2018-03-21T16:17:33.697Z,1027.8
2018-03-21T16:22:33.767Z,1027.8
2018-03-21T16:27:33.654Z,1027.9
2018-03-21T16:32:33.540Z,1028.1
2018-03-21T16:37:33.515Z,1028.2
2018-03-21T16:42:33.619Z,1028.3
2018-03-21T16:47:33.687Z,1028.3
2018-03-21T16:52:34.335Z,1028.4
2018-03-21T16:57:33.752Z,1028.3
2018-03-21T17:02:33.843Z,1028.3
2018-03-21T17:07:34.072Z,1028.5
2018-03-21T17:12:34.276Z,1028.6
2018-03-21T17:17:34.092Z,1028.6
2018-03-21T17:22:34.099Z,1028.7
2018-03-21T17:27:34.294Z,1028.7
2018-03-21T17:32:34.336Z,1028.9
2018-03-21T17:37:34.215Z,1028.9
2018-03-21T17:42:34.269Z,1029
2018-03-21T17:47:34.113Z,1029.1
2018-03-21T17:52:37.017Z,1029.2
2018-03-21T17:57:34.426Z,1029.2
2018-03-21T18:02:34.278Z,1029.4
2018-03-21T18:07:34.096Z,1029.4
2018-03-21T18:12:34.245Z,1029.4
2018-03-21T18:17:34.352Z,1029.5
2018-03-21T18:22:34.336Z,1029.5
2018-03-21T18:27:37.458Z,1029.6
2018-03-21T18:32:47.897Z,1029.7
2018-03-21T18:37:37.576Z,1029.7
2018-03-21T18:42:38.271Z,1029.7
2018-03-21T18:47:40.097Z,1029.5
2018-03-21T18:52:37.225Z,1029.5
2018-03-21T18:57:38.810Z,1029.6
2018-03-21T19:02:37.178Z,1029.6
2018-03-21T19:07:37.215Z,1029.6
2018-03-21T19:12:37.225Z,1029.6
2018-03-21T19:17:37.227Z,1029.6
2018-03-21T19:22:37.220Z,1029.7
2018-03-21T19:27:37.242Z,1029.8
2018-03-21T19:32:37.233Z,1029.8
2018-03-21T19:37:37.242Z,1029.9
2018-03-21T19:42:37.307Z,1029.9
2018-03-21T19:47:39.042Z,1029.8
2018-03-21T19:52:37.256Z,1029.8
2018-03-21T19:57:37.245Z,1029.8
2018-03-21T20:02:37.240Z,1029.7
2018-03-21T20:07:38.433Z,1029.7
2018-03-21T20:12:37.247Z,1029.7
2018-03-21T20:17:37.289Z,1029.6
2018-03-21T20:22:37.239Z,1029.6
2018-03-21T20:27:37.892Z,1029.6
2018-03-21T20:32:37.265Z,1029.5
2018-03-21T20:37:37.257Z,1029.5
2018-03-21T20:42:37.260Z,1029.5
2018-03-21T20:47:37.284Z,1029.5
2018-03-21T20:52:37.273Z,1029.5
2018-03-21T20:57:37.279Z,1029.5
2018-03-21T21:02:47.322Z,1029.5
2018-03-21T21:07:57.322Z,1029.5
2018-03-21T21:12:47.102Z,1029.4
2018-03-21T21:17:47.038Z,1029.5
2018-03-21T21:22:47.049Z,1029.4
2018-03-21T21:27:47.080Z,1029.5
2018-03-21T21:32:47.440Z,1029.4
2018-03-21T21:37:47.176Z,1029.5
2018-03-21T21:42:47.167Z,1029.4
2018-03-21T21:47:47.360Z,1029.4
2018-03-21T21:52:47.331Z,1029.4
2018-03-21T21:57:47.218Z,1029.4
2018-03-21T22:02:47.386Z,1029.3
2018-03-21T22:07:47.439Z,1029.3
2018-03-21T22:12:47.408Z,1029.3
2018-03-21T22:17:47.498Z,1029.4
2018-03-21T22:22:47.415Z,1029.3
2018-03-21T22:27:47.602Z,1029.3
2018-03-21T22:32:47.562Z,1029.3
2018-03-21T22:37:47.394Z,1029.3
2018-03-21T22:42:47.598Z,1029.3
2018-03-21T22:47:47.569Z,1029.2
2018-03-21T22:52:47.532Z,1029.2
2018-03-21T22:57:47.848Z,1029.2
2018-03-21T23:02:47.574Z,1029.2
2018-03-21T23:07:47.406Z,1029.1
2018-03-21T23:12:47.405Z,1029.1
2018-03-21T23:17:48.627Z,1029
2018-03-21T23:22:47.646Z,1029.1
2018-03-21T23:27:47.408Z,1029.2
2018-03-21T23:32:50.050Z,1029.2
2018-03-21T23:38:00.145Z,1029.1
2018-03-21T23:42:49.784Z,1029
2018-03-21T23:47:49.897Z,1029
2018-03-21T23:52:50.005Z,1029
2018-03-21T23:57:49.958Z,1028.9
